KDDH

Details ICAO KDDH
Name WILLIAM H MORSE STATE
Region United States
Timezone America/New_York (UTC-5.0)
Plans Departing 0
Arriving 2
Stats Elevation 827 ft / 252 m (AMSL)
Location 42.891329° -73.246398°
Runways 1
Magnetic Variation 13.819° W
Sunrise 2017-12-18 12:20:28 UTC / 2017-12-18 07:20:28 Local
Sunset 2017-12-18 21:21:38 UTC / 2017-12-18 16:21:38 Local
Advertisement - Login to hide

Runways

ID Width Length Bearing (true) Bearing (mag) Surface Threshold Offset Overrun Length
13 75 ft / 23 m 3,698 ft / 1,127 m 118.46° 132.28° Asphalt 0 ft / 0 m 0 ft / 0 m
31 75 ft / 23 m 3,698 ft / 1,127 m 298.47° 312.29° Asphalt 0 ft / 0 m 0 ft / 0 m

Map

Weather


0- 5 10 15 20 25 30 35+ Temperature / ° C

Clouds and Precipitation
Forecast for 2017-12-19 00:00 UTC. Updated 2 hours ago

Ground ~20,000 ft ~40,000 ft Winds

METAR

KDDH 182054Z AUTO 00000KT 5SM HZ BKN025 OVC037 01/M02 A2988 RMK AO2 SLP130 T00111017 56017

TAF

Not found

Frequencies

Recorded 135.92 MHz ASOS
Approach 125.00 MHz ALBANY APP/DEP
Unicom 122.80 MHz CTAF/UNICOM
Warning: Do not use this data for real-world aviation or navigation. No guarantee of current accuracy is given.